Tor Viking — SLJT — position and weather

sailwx.info

Track history (hours):
 
Tides and Currents Weather Stations Pressure Air Temp Water Temp Dewpoint Dewpoint Depression Visibility Wind Speed Wind Dir Waves Ship Positions

Tor Viking

Last reported at 2016-May-26 15:04 UTC. Time now 2016-May-26 22:36 UTC.
Position N 55°58' E 005°02'.

Length 93 m; draft 6.7 m.

Type: Towing. MMSI: 266004000.

Date/timePositionNaut miles runAvg speedWind from/ knotsBaromVisibWave heightAir tempDewpointWater temp
2016-May-26 15:04N 55°58' E 005°02'81 1.9
2016-May-24 20:33N 55°29' E 007°17'7 7.4
2016-May-24 19:33N 55°27' E 007°29'8 8.1
2016-May-24 18:33N 55°25' E 007°43'9 8.5
2016-May-24 17:32N 55°24' E 007°58'8 8.2
2016-May-24 16:33N 55°25' E 008°12'8 8.4
2016-May-24 15:34N 55°28' E 008°26'0 0.2
2016-May-24 14:31N 55°28' E 008°26'0 0.0
2016-May-24 13:31N 55°28' E 008°26'0 0.0
2016-May-24 12:28N 55°28' E 008°26'0 0.0
2016-May-24 11:31N 55°28' E 008°26'0 0.0
2016-May-24 10:19N 55°28' E 008°26'0 0.0
2016-May-24 09:31N 55°28' E 008°26'0 0.0
2016-May-24 08:19N 55°28' E 008°26'0 0.0
2016-May-24 07:22N 55°28' E 008°26'0 0.0
2016-May-24 06:22N 55°28' E 008°26'0 0.0
2016-May-24 05:25N 55°28' E 008°26'0 0.0
2016-May-24 04:22N 55°28' E 008°26'0 0.0
2016-May-24 03:22N 55°28' E 008°26'0 0.0
2016-May-24 02:10N 55°28' E 008°26'0 0.0
2016-May-24 01:28N 55°28' E 008°26'0 0.0
2016-May-24 00:31N 55°28' E 008°26'0 0.0
2016-May-23 22:31N 55°28' E 008°26'0 0.0
2016-May-23 21:31N 55°28' E 008°26'0 0.0
2016-May-23 20:31N 55°28' E 008°26'0 0.0
2016-May-23 19:04N 55°28' E 008°26'0 0.0
2016-May-23 18:04N 55°28' E 008°26'0 0.0
2016-May-23 17:22N 55°28' E 008°26'0 0.0
2016-May-23 16:19N 55°28' E 008°26'0 0.0
2016-May-23 15:20N 55°28' E 008°26'0 0.0
2016-May-23 14:22N 55°28' E 008°26'0 0.0
2016-May-23 13:26N 55°28' E 008°26'0 0.0
2016-May-23 12:33N 55°28' E 008°26'0 0.0
2016-May-23 11:32N 55°28' E 008°26'0 0.0
2016-May-23 10:33N 55°28' E 008°26'0 0.0
2016-May-23 09:32N 55°28' E 008°26'4 3.8
2016-May-23 08:33N 55°28' E 008°19'8 8.4
2016-May-23 07:34N 55°23' E 008°08'8 7.2
2016-May-23 06:30N 55°21' E 007°54'7 7.8
2016-May-23 05:33N 55°25' E 007°43'8 7.5
2016-May-23 04:34N 55°29' E 007°32'7 7.4
2016-May-23 03:33N 55°32' E 007°20'7 7.4
2016-May-23 02:33N 55°36' E 007°09'368 8.7
2016-May-21 08:20N 58°30' W 002°46'7 9.7
2016-May-21 07:34N 58°36' W 002°54'8 8.1
2016-May-21 06:34N 58°43' W 003°03'3 3.3
2016-May-21 05:33N 58°45' W 003°06'0 0.3
2016-May-21 04:33N 58°45' W 003°06'4 4.1
2016-May-21 03:34N 58°49' W 003°03'4 4.3
2016-May-21 02:34N 58°53' W 003°03'2 2.4
2016-May-21 01:34N 58°55' W 002°59'0 0.1
2016-May-21 00:33N 58°55' W 002°59'0 0.0
2016-May-20 23:33N 58°55' W 002°59'0 0.0
2016-May-20 22:33N 58°55' W 002°59'0 0.0
2016-May-20 21:33N 58°55' W 002°59'0 0.0
2016-May-20 20:33N 58°55' W 002°59'0 0.0
2016-May-20 19:33N 58°55' W 002°59'0 0.0
2016-May-20 18:33N 58°55' W 002°59'0 0.0
2016-May-20 17:33N 58°55' W 002°59'0 0.0
2016-May-20 16:33N 58°55' W 002°59'0 0.0
2016-May-20 15:33N 58°55' W 002°59'0 0.0
2016-May-20 14:33N 58°55' W 002°59'1 1.1
2016-May-20 13:34N 58°55' W 003°01'0 0.0
2016-May-20 12:33N 58°55' W 003°01'0 0.2
2016-May-20 11:33N 58°55' W 003°01'0 0.2
2016-May-20 10:33N 58°55' W 003°01'0 0.1
2016-May-20 09:33N 58°55' W 003°02'0 0.1
2016-May-20 08:33N 58°55' W 003°02'0 0.2
2016-May-20 07:33N 58°55' W 003°01'0 0.2
2016-May-20 06:34N 58°55' W 003°01'0 0.0
2016-May-20 05:33N 58°55' W 003°01'1 1.3
2016-May-20 04:33N 58°55' W 002°59'0 0.0
2016-May-20 03:33N 58°55' W 002°59'0 0.0
2016-May-20 02:33N 58°55' W 002°59'0 0.0
2016-May-20 01:33N 58°55' W 002°59'0 0.0
2016-May-20 00:33N 58°55' W 002°59'0 0.0
2016-May-19 23:33N 58°55' W 002°59'0 0.0
2016-May-19 22:33N 58°55' W 002°59'0 0.0
2016-May-19 21:33N 58°55' W 002°59'0 0.0
2016-May-19 20:33N 58°55' W 002°59'0 0.0
2016-May-19 19:33N 58°55' W 002°59'0 0.0
2016-May-19 18:33N 58°55' W 002°59'0 0.0
2016-May-19 17:33N 58°55' W 002°59'1 1.1
2016-May-19 16:33N 58°55' W 003°01'2 2.5
2016-May-19 15:33N 58°53' W 003°03'1010.2
2016-May-19 14:33N 58°43' W 003°01'9 9.0
2016-May-19 13:33N 58°35' W 002°53'73 9.2
2016-May-19 05:33N 57°32' W 001°39'  
Track history (hours):
 
Tides and Currents Weather Stations Pressure Air Temp Water Temp Dewpoint Dewpoint Depression Visibility Wind Speed Wind Dir Waves Ship Positions

Tor Viking

Last reported at 2016-May-26 15:04 UTC. Time now 2016-May-26 22:36 UTC.
Position N 55°58' E 005°02'.

Length 93 m; draft 6.7 m.

Type: Towing. MMSI: 266004000.

Date/timePositionNaut miles runAvg speedWind from/ knotsBaromVisibWave heightAir tempDewpointWater temp
2016-May-26 15:04N 55°58' E 005°02'81 1.9
2016-May-24 20:33N 55°29' E 007°17'7 7.4
2016-May-24 19:33N 55°27' E 007°29'8 8.1
2016-May-24 18:33N 55°25' E 007°43'9 8.5
2016-May-24 17:32N 55°24' E 007°58'8 8.2
2016-May-24 16:33N 55°25' E 008°12'8 8.4
2016-May-24 15:34N 55°28' E 008°26'0 0.2
2016-May-24 14:31N 55°28' E 008°26'0 0.0
2016-May-24 13:31N 55°28' E 008°26'0 0.0
2016-May-24 12:28N 55°28' E 008°26'0 0.0
2016-May-24 11:31N 55°28' E 008°26'0 0.0
2016-May-24 10:19N 55°28' E 008°26'0 0.0
2016-May-24 09:31N 55°28' E 008°26'0 0.0
2016-May-24 08:19N 55°28' E 008°26'0 0.0
2016-May-24 07:22N 55°28' E 008°26'0 0.0
2016-May-24 06:22N 55°28' E 008°26'0 0.0
2016-May-24 05:25N 55°28' E 008°26'0 0.0
2016-May-24 04:22N 55°28' E 008°26'0 0.0
2016-May-24 03:22N 55°28' E 008°26'0 0.0
2016-May-24 02:10N 55°28' E 008°26'0 0.0
2016-May-24 01:28N 55°28' E 008°26'0 0.0
2016-May-24 00:31N 55°28' E 008°26'0 0.0
2016-May-23 22:31N 55°28' E 008°26'0 0.0
2016-May-23 21:31N 55°28' E 008°26'0 0.0
2016-May-23 20:31N 55°28' E 008°26'0 0.0
2016-May-23 19:04N 55°28' E 008°26'0 0.0
2016-May-23 18:04N 55°28' E 008°26'0 0.0
2016-May-23 17:22N 55°28' E 008°26'0 0.0
2016-May-23 16:19N 55°28' E 008°26'0 0.0
2016-May-23 15:20N 55°28' E 008°26'0 0.0
2016-May-23 14:22N 55°28' E 008°26'0 0.0
2016-May-23 13:26N 55°28' E 008°26'0 0.0
2016-May-23 12:33N 55°28' E 008°26'0 0.0
2016-May-23 11:32N 55°28' E 008°26'0 0.0
2016-May-23 10:33N 55°28' E 008°26'0 0.0
2016-May-23 09:32N 55°28' E 008°26'4 3.8
2016-May-23 08:33N 55°28' E 008°19'8 8.4
2016-May-23 07:34N 55°23' E 008°08'8 7.2
2016-May-23 06:30N 55°21' E 007°54'7 7.8
2016-May-23 05:33N 55°25' E 007°43'8 7.5
2016-May-23 04:34N 55°29' E 007°32'7 7.4
2016-May-23 03:33N 55°32' E 007°20'7 7.4
2016-May-23 02:33N 55°36' E 007°09'368 8.7
2016-May-21 08:20N 58°30' W 002°46'7 9.7
2016-May-21 07:34N 58°36' W 002°54'8 8.1
2016-May-21 06:34N 58°43' W 003°03'3 3.3
2016-May-21 05:33N 58°45' W 003°06'0 0.3
2016-May-21 04:33N 58°45' W 003°06'4 4.1
2016-May-21 03:34N 58°49' W 003°03'4 4.3
2016-May-21 02:34N 58°53' W 003°03'2 2.4
2016-May-21 01:34N 58°55' W 002°59'0 0.1
2016-May-21 00:33N 58°55' W 002°59'0 0.0
2016-May-20 23:33N 58°55' W 002°59'0 0.0
2016-May-20 22:33N 58°55' W 002°59'0 0.0
2016-May-20 21:33N 58°55' W 002°59'0 0.0
2016-May-20 20:33N 58°55' W 002°59'0 0.0
2016-May-20 19:33N 58°55' W 002°59'0 0.0
2016-May-20 18:33N 58°55' W 002°59'0 0.0
2016-May-20 17:33N 58°55' W 002°59'0 0.0
2016-May-20 16:33N 58°55' W 002°59'0 0.0
2016-May-20 15:33N 58°55' W 002°59'0 0.0
2016-May-20 14:33N 58°55' W 002°59'1 1.1
2016-May-20 13:34N 58°55' W 003°01'0 0.0
2016-May-20 12:33N 58°55' W 003°01'0 0.2
2016-May-20 11:33N 58°55' W 003°01'0 0.2
2016-May-20 10:33N 58°55' W 003°01'0 0.1
2016-May-20 09:33N 58°55' W 003°02'0 0.1
2016-May-20 08:33N 58°55' W 003°02'0 0.2
2016-May-20 07:33N 58°55' W 003°01'0 0.2
2016-May-20 06:34N 58°55' W 003°01'0 0.0
2016-May-20 05:33N 58°55' W 003°01'1 1.3
2016-May-20 04:33N 58°55' W 002°59'0 0.0
2016-May-20 03:33N 58°55' W 002°59'0 0.0
2016-May-20 02:33N 58°55' W 002°59'0 0.0
2016-May-20 01:33N 58°55' W 002°59'0 0.0
2016-May-20 00:33N 58°55' W 002°59'0 0.0
2016-May-19 23:33N 58°55' W 002°59'0 0.0
2016-May-19 22:33N 58°55' W 002°59'0 0.0
2016-May-19 21:33N 58°55' W 002°59'0 0.0
2016-May-19 20:33N 58°55' W 002°59'0 0.0
2016-May-19 19:33N 58°55' W 002°59'0 0.0
2016-May-19 18:33N 58°55' W 002°59'0 0.0
2016-May-19 17:33N 58°55' W 002°59'1 1.1
2016-May-19 16:33N 58°55' W 003°01'2 2.5
2016-May-19 15:33N 58°53' W 003°03'1010.2
2016-May-19 14:33N 58°43' W 003°01'9 9.0
2016-May-19 13:33N 58°35' W 002°53'73 9.2
2016-May-19 05:33N 57°32' W 001°39'  

Dump ship's entire track history